Terminal Aerodrome Forecast
Issued by NWS

Home | Current Version | Previous Version | Text Only | Print | Product List | Glossary Off
Versions: 1 2 3 4 5 6 7 8 9 10 11 12 13 14 15 16 17 18

000
FTUS43 KABR 261100 AAA
TAFPIR
TAF AMD
KPIR 261157Z 2612/2712 20006KT P6SM SCT050 BKN100
      TEMPO 2612/2613 P6SM -TSRA BKN050CB
     FM261400 30011KT P6SM SKC
     FM261600 31015G24KT P6SM SKC
     FM261900 32023G33KT P6SM SKC
     FM270200 32009KT P6SM SKC=

USA.gov is the U.S. government's official web portal to all federal, state and local government web resources and services.